1988 HELY (1988076S14056)


On this page: IBTrACS data - Map and Plots - Positions - Intensities - Original source data

Summary

Start Mar 16
End Apr 2
Basin SI
LMI 65 kt
Sources jtwc_sh
reunion
td9636
td9636
neumann
jtwc_sh
In WMO? Yes
Related storms 1988083S13062
Previous storm 1988 GASITAO (SI)
Previous in basin 1988 GASITAO (SI)
Concurrent storms 1988 GASITAO (SI)
1988 HELY (SI)
1988 MISSING (SI)
Next in basin 1988 MISSING (SI)
Next storm 1988 MISSING (SI)

top of page IBTrACS Data: File Access

top of page HURSAT Data: File Access

Image of storm

top of page Plots:

Map of storm track will not appear if FTP is down
Time series of cyclone Maximum Sustained Wind will not appear if FTP is down
Time series of cyclone Minimum Central Pressure will not appear if FTP is down

top of page Track Data:Position

jtwc_sh reunion td9636 td9636 neumann jtwc_sh
Date Lat Lon Lat Lon Lat Lon Lat Lon Lat Lon Lat Lon
1988-03-16 06:00:00 -13.5 55.5 -13.5 55.5
1988-03-16 12:00:00 -13.6 54.8 -13.6 54.8
1988-03-16 18:00:00 -13.5 53.9 -13.5 53.9
1988-03-17 00:00:00 -12.3 53.7 -13.1 53.1 -12.3 53.7 -13.1 53.1
1988-03-17 06:00:00 -12.0 52.6 -12.7 52.6 -12.0 52.6 -12.7 52.6
1988-03-17 12:00:00 -11.5 51.6 -12.0 52.0 -11.5 51.6 -12.0 52.0
1988-03-17 18:00:00 -11.0 50.9 -11.2 51.2 -10.9 50.8 -11.2 51.2
1988-03-18 00:00:00 -10.3 50.5 -10.2 50.8 -10.3 50.5 -10.2 50.8
1988-03-18 06:00:00 -10.1 51.0 -9.8 51.2 -10.0 51.0 -9.8 51.2
1988-03-18 12:00:00 -10.0 51.7 -10.2 52.0 -10.0 51.7 -10.2 52.0
1988-03-18 18:00:00 -10.2 52.2 -11.1 52.3 -10.2 52.1 -11.1 52.3
1988-03-19 00:00:00 -10.8 52.5 -12.0 52.7 -10.8 52.5 -12.0 52.7
1988-03-19 06:00:00 -11.8 53.0 -13.1 52.4 -11.7 52.9 -13.1 52.4
1988-03-19 12:00:00 -12.6 53.4 -14.0 53.0 -12.6 53.4 -14.0 53.0
1988-03-19 18:00:00 -13.1 54.4 -14.0 54.0 -13.0 54.3 -14.0 54.0
1988-03-20 00:00:00 -13.3 55.3 -13.8 55.2 -13.3 55.3 -13.8 55.2
1988-03-20 06:00:00 -13.7 55.8 -13.8 55.6 -13.7 55.9 -13.8 55.6
1988-03-20 12:00:00 -14.0 56.2 -13.7 55.9 -14.0 56.2 -13.7 55.9
1988-03-20 18:00:00 -14.4 56.5 -13.7 56.2 -14.3 56.2 -13.7 56.2
1988-03-21 00:00:00 -13.6 56.6 -14.4 56.5 -13.6 56.6
1988-03-21 06:00:00 -13.6 57.4 -13.8 57.6 -13.6 57.4
1988-03-21 12:00:00 -13.6 58.1 -13.1 58.9 -13.6 58.1
1988-03-21 18:00:00 -12.9 59.2 -12.6 59.7 -12.9 59.2
1988-03-22 00:00:00 -12.3 60.3 -12.3 60.4 -12.3 60.3
1988-03-22 06:00:00 -12.2 61.0 -12.4 62.1 -12.2 61.0
jtwc_sh reunion td9636 td9636 neumann jtwc_sh
1988-03-22 12:00:00 -12.6 61.6 -12.6 61.6
1988-03-22 18:00:00 -13.0 62.4 -13.0 62.4
1988-03-23 00:00:00 -13.5 63.0 -13.5 63.0
1988-03-23 06:00:00 -14.0 63.2 -14.0 63.2
1988-03-23 12:00:00 -14.2 63.6 -14.2 63.6
1988-03-23 18:00:00 -14.7 64.0 -14.7 64.0
1988-03-24 00:00:00 -14.6 64.4 -14.6 64.4
1988-03-24 06:00:00 -14.1 64.0 -14.1 64.0
1988-03-24 12:00:00 -14.2 63.0 -14.2 63.0
1988-03-24 18:00:00 -14.5 61.9 -14.5 61.9
1988-03-25 00:00:00 -14.7 61.0 -14.0 60.0 -14.7 61.0 -14.0 60.0
1988-03-25 06:00:00 -15.0 59.5 -14.4 58.9 -15.0 59.5 -14.4 58.8
1988-03-25 12:00:00 -15.1 57.9 -14.7 57.8 -15.1 57.9 -14.7 57.8
1988-03-25 18:00:00 -15.0 56.0 -14.8 56.7 -15.0 56.0 -14.8 56.7
1988-03-26 00:00:00 -14.9 54.3 -14.7 55.7 -14.9 54.3 -14.7 55.7
1988-03-26 06:00:00 -14.9 53.8 -14.6 54.9 -14.9 53.8 -14.6 54.8
1988-03-26 12:00:00 -14.9 53.1 -14.6 54.1 -14.9 53.1 -14.6 54.1
1988-03-26 18:00:00 -15.0 52.5 -14.6 53.2 -15.0 52.5 -14.6 53.3
1988-03-27 00:00:00 -15.1 52.0 -14.7 52.3 -15.1 52.0 -14.7 52.3
1988-03-27 06:00:00 -15.3 51.3 -15.0 51.5 -15.3 51.3 -15.0 51.4
1988-03-27 12:00:00 -15.7 50.8 -15.4 50.8 -15.7 50.8 -15.4 50.8
1988-03-27 18:00:00 -15.9 50.1 -15.8 50.3 -15.9 50.1 -15.8 50.4
1988-03-28 00:00:00 -16.0 49.5 -16.2 49.9 -16.0 49.5 -16.2 49.9
1988-03-28 06:00:00 -16.1 49.1 -16.4 49.4 -16.1 49.1 -16.5 49.5
jtwc_sh reunion td9636 td9636 neumann jtwc_sh
1988-03-28 12:00:00 -16.7 47.5 -16.6 48.8 -16.7 47.5 -16.6 48.8
1988-03-28 18:00:00 -16.9 46.1 -16.7 48.0 -16.9 46.1 -16.7 48.2
1988-03-29 00:00:00 -17.0 44.5 -16.8 47.1 -17.0 44.5 -16.8 47.1
1988-03-29 06:00:00 -17.0 43.0 -16.9 45.9 -17.0 43.0 -16.9 45.9
1988-03-29 12:00:00 -17.1 42.3 -17.0 44.7 -17.1 42.3 -17.0 44.7
1988-03-29 18:00:00 -17.2 41.0 -17.3 43.5 -17.2 41.0 -17.3 43.5
1988-03-30 00:00:00 -17.6 41.6 -17.7 42.4 -17.6 41.6 -17.7 42.4
1988-03-30 06:00:00 -18.8 41.0 -18.5 41.6 -18.8 41.0 -18.6 41.4
1988-03-30 12:00:00 -19.2 40.2 -19.2 40.9 -19.2 40.2 -19.2 40.9
1988-03-30 18:00:00 -19.4 39.5 -19.3 40.1 -19.4 39.5 -19.4 40.1
1988-03-31 00:00:00 -19.7 38.7 -19.2 39.4 -19.7 38.7 -19.2 39.4
1988-03-31 06:00:00 -19.8 37.2 -19.3 38.7 -19.8 37.2 -19.1 38.5
1988-03-31 12:00:00 -20.1 37.1 -19.6 38.1 -20.1 37.1 -19.6 38.1
1988-03-31 18:00:00 -21.0 37.5 -20.0 37.8 -21.0 37.5 -20.3 38.0
1988-04-01 00:00:00 -21.8 38.0 -20.7 37.9 -21.8 38.0 -20.7 37.9
1988-04-01 06:00:00 -22.5 38.5 -21.8 38.3 -22.5 38.5 -21.0 37.9
1988-04-01 12:00:00 -23.2 39.1 -23.0 39.0 -23.2 39.1
1988-04-01 18:00:00 -24.0 39.8 -23.9 39.5 -24.0 39.8
1988-04-02 00:00:00 -24.8 40.2 -24.8 40.2 -24.8 40.2
1988-04-02 06:00:00 -25.3 40.8 -25.8 41.2 -25.3 40.8
1988-04-02 12:00:00 -26.0 41.2 -27.0 42.5 -26.0 41.2
1988-04-02 18:00:00 -26.7 42.0 -26.7 42.0

top of pageTrack Data:Intensity

jtwc_sh reunion td9636 td9636 neumann jtwc_sh
Date Wind Pres Wind Pres Wind Pres Wind Pres Wind Pres Wind Pres
1988-03-16 06:00:00 28. 997. 35. 997.
1988-03-16 12:00:00 28. 997. 35. 997.
1988-03-16 18:00:00 28. 997. 35. 997.
1988-03-17 00:00:00 25. 28. 997. 25. 35. 997.
1988-03-17 06:00:00 25. 28. 997. 25. 35. 997.
1988-03-17 12:00:00 30. 28. 997. 30. 35. 997.
1988-03-17 18:00:00 35. 28. 997. 30. 35. 997.
1988-03-18 00:00:00 35. 36. 991. 35. 45. 991.
1988-03-18 06:00:00 40. 52. 976. 35. 65. 976.
1988-03-18 12:00:00 40. 44. 984. 40. 55. 984.
1988-03-18 18:00:00 40. 44. 984. 40. 55. 984.
1988-03-19 00:00:00 45. 44. 984. 45. 55. 984.
1988-03-19 06:00:00 45. 44. 984. 45. 55. 984.
1988-03-19 12:00:00 40. 36. 991. 40. 45. 991.
1988-03-19 18:00:00 40. 36. 991. 40. 45. 991.
1988-03-20 00:00:00 35. 36. 991. 35. 45. 991.
1988-03-20 06:00:00 35. 28. 997. 35. 35. 997.
1988-03-20 12:00:00 35. 28. 997. 35. 35. 997.
1988-03-20 18:00:00 30. 28. 997. 35. 35. 997.
1988-03-21 00:00:00 36. 991. 35. 45. 991.
1988-03-21 06:00:00 36. 991. 35. 45. 991.
1988-03-21 12:00:00 28. 997. 30. 35. 997.
1988-03-21 18:00:00 24. 1000. 30. 30. 1000.
1988-03-22 00:00:00 24. 1000. 25. 30. 1000.
1988-03-22 06:00:00 24. 1000. 25. 30. 1000.
jtwc_sh reunion td9636 td9636 neumann jtwc_sh
1988-03-22 12:00:00 24. 1000. 30. 1000.
1988-03-22 18:00:00 24. 1000. 30. 1000.
1988-03-23 00:00:00 24. 1000. 30. 1000.
1988-03-23 06:00:00 24. 1000. 30. 1000.
1988-03-23 12:00:00 20. 1000. 30. 1000.
1988-03-23 18:00:00 20. 1000. 30. 1000.
1988-03-24 00:00:00 20. 1003. 25. 1003.
1988-03-24 06:00:00 20. 1003. 25. 1003.
1988-03-24 12:00:00 20. 1000. 30. 1000.
1988-03-24 18:00:00 24. 1000. 30. 1000.
1988-03-25 00:00:00 24. 1000. 20. 30. 1000. 20.
1988-03-25 06:00:00 36. 20. 30. 20.
1988-03-25 12:00:00 36. 20. 30. 20.
1988-03-25 18:00:00 36. 20. 30. 20.
1988-03-26 00:00:00 24. 1000. 20. 30. 1000. 20.
1988-03-26 06:00:00 28. 997. 20. 35. 997. 25.
1988-03-26 12:00:00 28. 997. 25. 35. 997. 25.
1988-03-26 18:00:00 28. 997. 25. 35. 997. 30.
1988-03-27 00:00:00 36. 991. 30. 45. 991. 30.
1988-03-27 06:00:00 28. 997. 30. 35. 997. 35.
1988-03-27 12:00:00 28. 997. 40. 35. 997. 40.
1988-03-27 18:00:00 36. 991. 40. 45. 991. 35.
1988-03-28 00:00:00 44. 984. 30. 55. 984. 30.
1988-03-28 06:00:00 36. 991. 30. 40. 991. 30.
jtwc_sh reunion td9636 td9636 neumann jtwc_sh
1988-03-28 12:00:00 36. 25. 35. 25.
1988-03-28 18:00:00 36. 25. 30. 25.
1988-03-29 00:00:00 36. 20. 30. 20.
1988-03-29 06:00:00 36. 20. 35. 20.
1988-03-29 12:00:00 36. 20. 30. 20.
1988-03-29 18:00:00 20. 1003. 20. 25. 1003. 20.
1988-03-30 00:00:00 23. 1000. 25. 30. 1000. 25.
1988-03-30 06:00:00 28. 997. 25. 35. 997. 25.
1988-03-30 12:00:00 24. 1000. 25. 30. 1000. 25.
1988-03-30 18:00:00 24. 1000. 25. 30. 1000. 25.
1988-03-31 00:00:00 24. 1000. 25. 30. 1000. 25.
1988-03-31 06:00:00 20. 1003. 25. 25. 1003. 25.
1988-03-31 12:00:00 20. 1003. 25. 25. 1003. 25.
1988-03-31 18:00:00 24. 1000. 25. 30. 1000. 25.
1988-04-01 00:00:00 28. 997. 20. 35. 997. 20.
1988-04-01 06:00:00 28. 997. 20. 35. 997. 20.
1988-04-01 12:00:00 24. 1000. 20. 30. 1000.
1988-04-01 18:00:00 24. 1000. 20. 30. 1000.
1988-04-02 00:00:00 24. 1000. 20. 30. 1000.
1988-04-02 06:00:00 20. 1003. 20. 25. 1003.
1988-04-02 12:00:00 36. 20. 25.
1988-04-02 18:00:00 36. 25.

top of page Links to source data

Source Source file Format
jtwc_sh bsh171988.txt ATCF
reunion WMO-Best-Tracks.txt:Line=14168:hely WMO (old format)
td9636 cons_worldwide_trop_cyclone_18710101-19891231-005:Line=13818 TD 9636
td9636 cons_worldwide_trop_cyclone_18710101-19891231-005:Line=13833 TD 9636
neumann tracks.sh:Storm=831:HELY:BSH171988:& HURDAT
jtwc_sh bsh181988.txt ATCF